Lentia, Austria

11:05 AM CEST die 29o March, anno 2017 (GMT +0200)
Hauptplatz 17 | | Change Station

Elev 879 ft 48.31 °N, 14.29 °E | Updated 13 seconds ago

Serena
Serena
60.3 °F
Feels Like 60.3 °F
N
2.5
Ventus Variabilis Ventus from Inter Aquilonem et Zephyrus
Gusts 4.9 mph

Hodie
High -- | Low -- °F
--% Chance of Precip.
Yesterday
High -- | Low -- °F
Precip. -- in
Pressio 30.33 in
Visibilitas 6.2 milia passuum
Clouds Few 4000 ft
Frigus in quo Ros apparet 38 °F
Umor 44%
Rainfall 0.00 in
Snow Depth Not available.
6:47 AM 7:28 PM
New, 2% visible
METAR LOWL 290850Z 28007KT 240V310 9999 FEW040 14/06 Q1027 NOSIG
Pressio 30.33 in
Visibilitas 6.2 milia passuum
Clouds Few 4000 ft
Frigus in quo Ros apparet 38 °F
Umor 44%
Rainfall 0.00 in
Snow Depth Not available.
6:47 AM 7:28 PM
New, 2% visible
METAR LOWL 290850Z 28007KT 240V310 9999 FEW040 14/06 Q1027 NOSIG

Get Severe Weather Alerts

Thanks for signing up!

Be on the lookout for a verification email in your inbox.

You'll start receiving the daily forecast at 8 AM.

×

10-Day Weather Forecast

×

Almanac

Astronomy

Mar. 29, 2017 Rise Set
Actual Time
Civil Twilight
Nautical Twilight
Astronomical Twilight
Moon
Length Of Visible Light
Length of Day
Tomorrow will be .
, % of the Moon is Illuminated

Today's Extremes

Country Highs Country Lows

Community

WunderPhotos

Upload Photos

1,962,540 photos uploaded!

WunderBlog® & News

Nearby

Air Quality

  Air Quality AQ Index Pollutant
Not available.

Snow Depth

Station Depth Elevation

Earthquake Activity

City Distance Mag. Time & Date
Minimum magnitude displayed is 2.5.

Earthquake Activity

City Distance Mag. Time & Date
Minimum magnitude displayed is 2.5.

Coastal Water Temperatures

Locus Calor

Stations

Nearby Weather Stations

Station Location Temp Frigus Venti Frigus in quo Ros apparet Umor Ventus Precip. Elev Renovata Type